Warning: Javascript must be enabled to use all the features on this page!


Page Loading - Please Wait...

* We've detected you're using a mobile device. Find our Next Generation Station Page here.
Click to hideNews Bulletins

Peak Streamflow for the Nation

USGS 06889200 SOLDIER C NR DELIA, KS

Jackson County, Kansas
Hydrologic Unit Code 10270102
Latitude  39°14'18", Longitude  95°53'18" NAD27
Drainage area 149  square miles
Contributing drainage area 149  square miles
Gage datum 940.18 feet above NAVD88
Output formats
Table
Graph
Tab-separated file
peakfq (watstore) format
Reselect output format
Water
Year
Date Gage
Height
(feet)
Stream-
flow
(cfs)
1951 1951-06-21 24.00  
1959 1958-10-07 19.40 2,700
1960 1960-03-28 20.40 3,380
1961 1961-09-13 19.32 3,040
1962 1961-10-11 21.00 4,000
1963 1962-10-07 15.60 1,850
1964 1964-06-23 19.18 3,050
1965 1965-09-22 21.11 5,380
1966 1966-06-09 13.58 1,400
1967 1967-06-12 21.45 7,580
1968 1968-08-10 21.57 5,560
1969 1969-04-27 20.92 4,450
1970 1970-06-04 20.61 3,930
1971 1971-05-22 15.19 1,400
1972 1972-09-08 19.76 3,330
1973 1973-09-27 20.932 5,460
1974 1973-10-11 21.53 7,020
1975 1975-06-10 20.63 4,940
1976 1976-05-06 19.12 3,300
1977 1977-09-13 21.75 8,380
1978 1978-06-01 19.81 4,370
1979 1979-03-03 19.50 4,000
1980 1980-03-30 20.74 5,920
1981 1981-08-02 19.49 4,120
1982 1982-06-09 23.95 29,400
1983 1983-06-19 20.39 5,360
1984 1984-06-10 22.81 16,700
1985 1985-09-30 17.60 3,330
1986 1986-05-17 20.76 6,040
1987 1987-05-28 21.60 9,950
1988 1988-04-02 14.21 2,370
1989 1989-09-06 18.74 3,960
1990 1990-06-15 19.06 4,350
1991 1991-04-27 21.11 8,560
1992 1992-03-18 18.70 4,010
1993 1993-07-10 21.10 8,520
1994 1994-06-08 12.14 1,500
1995 1995-05-13 23.09 19,900
1996 1996-05-27 19.63 4,840
1997 1997-04-11 21.51 5,720
1998 1998-07-26 15.27 3,770
1999 1999-06-28 24.84 16,300
2000 2000-06-24 16.32 1,840
2001 2001-09-18 26.44 6,560
2002 2002-05-11 19.85 3,840
2003 2003-04-20 16.90 1,230
2004 2004-03-05 22.85 3,150
2005 2005-06-05 28.78 6,100
2006 2005-10-02 33.00 59,600
2007 2007-05-07 29.10 9,490
2008 2007-12-11 22.38 3,100
2009 2009-04-27 28.71 10,600
2010 2010-07-05 28.75 10,800
2011 2011-06-02 27.31 6,460
2012 2011-12-20 13.81 1,020
2013 2013-05-29 20.18 2,860
2014 2014-02-20 16.36 1,580
2015 2015-06-05 29.61 13,100
2016 2016-05-27 29.16 11,300
2017 2017-05-19 26.84 6,750
2020 2020-04-12   2,710
?
  Peak Gage-Height Qualification Codes.